Time;durP1;ratioP1;P1;durP2;ratioP2;P2;SDS_P1;SDS_P2;PMS_P1;PMS_P2;Temp;Humidity;BMP_temperature;BMP_pressure;BME280_temperature;BME280_humidity;BME280_pressure;Samples;Min_cycle;Max_cycle;Signal;HPM_P1;HPM_P2
2022/11/28 00:01:01;;;;;;;12.87;5.83;;;7.00;99.90;;;;;;5052492;28;20377;-65
2022/11/28 00:03:27;;;;;;;12.63;5.90;;;6.10;99.90;;;;;;5052434;28;20372;-65
2022/11/28 00:05:52;;;;;;;12.25;5.70;;;6.80;99.90;;;;;;5051426;28;20578;-65
2022/11/28 00:08:18;;;;;;;10.57;5.30;;;6.00;99.90;;;;;;5052772;28;20784;-65
2022/11/28 00:10:44;;;;;;;12.93;5.70;;;6.00;99.90;;;;;;5051664;28;20843;-65
2022/11/28 00:13:10;;;;;;;11.10;5.67;;;6.00;99.90;;;;;;5052148;28;20381;-65
2022/11/28 00:15:35;;;;;;;12.07;5.80;;;6.10;99.90;;;;;;5051233;28;20413;-65
2022/11/28 00:18:01;;;;;;;13.50;6.18;;;7.00;99.90;;;;;;5051921;28;20385;-65
2022/11/28 00:20:26;;;;;;;12.90;5.50;;;6.10;99.90;;;;;;5052145;28;20381;-65
2022/11/28 00:22:52;;;;;;;12.33;6.07;;;6.10;99.90;;;;;;5051450;28;20397;-65
2022/11/28 00:25:18;;;;;;;12.53;5.50;;;6.00;99.90;;;;;;5052067;28;20409;-65
2022/11/28 00:27:43;;;;;;;11.18;5.50;;;7.60;99.90;;;;;;5051254;28;20484;-65
2022/11/28 00:30:10;;;;;;;12.53;5.73;;;6.60;1.00;;;;;;5052210;28;20381;-65
2022/11/28 00:32:35;;;;;;;11.02;4.85;;;6.00;1.00;;;;;;5051637;28;20397;-66
2022/11/28 00:35:01;;;;;;;13.13;5.63;;;6.10;99.90;;;;;;5051587;28;20751;-65
2022/11/28 00:37:26;;;;;;;12.07;5.83;;;6.10;99.90;;;;;;5051746;28;20378;-65
2022/11/28 00:39:52;;;;;;;11.40;5.40;;;6.10;99.90;;;;;;5051302;28;20483;-65
2022/11/28 00:42:20;;;;;;;11.13;5.30;;;6.20;99.90;;;;;;5051971;28;20836;-65
2022/11/28 00:44:49;;;;;;;11.70;5.40;;;6.00;99.90;;;;;;5050750;28;20476;-65
2022/11/28 00:47:15;;;;;;;13.57;5.72;;;6.10;99.90;;;;;;5051652;28;20460;-65
2022/11/28 00:49:40;;;;;;;11.90;5.63;;;7.20;99.90;;;;;;5050660;28;20468;-65
2022/11/28 00:52:06;;;;;;;13.20;5.63;;;6.00;99.90;;;;;;5051473;28;20393;-66
2022/11/28 00:54:32;;;;;;;12.40;6.18;;;6.00;99.90;;;;;;5051814;28;20413;-66
2022/11/28 00:56:58;;;;;;;12.25;5.60;;;6.90;99.90;;;;;;5050490;28;20385;-65
2022/11/28 00:59:23;;;;;;;14.37;6.57;;;6.10;99.90;;;;;;5051532;28;20786;-66
2022/11/28 01:01:49;;;;;;;14.65;6.45;;;6.10;99.90;;;;;;5050744;28;20409;-65
2022/11/28 01:04:16;;;;;;;13.63;6.47;;;7.00;99.90;;;;;;5051014;28;20405;-65
2022/11/28 01:06:48;;;;;;;13.98;5.97;;;6.10;99.90;;;;;;5050996;28;20448;-65
2022/11/28 01:09:21;;;;;;;13.48;5.90;;;6.50;99.90;;;;;;5051361;28;20392;-65
2022/11/28 01:11:48;;;;;;;12.40;6.50;;;7.20;1.00;;;;;;5050728;28;20416;-65
2022/11/28 01:14:15;;;;;;;11.70;5.85;;;7.70;1.00;;;;;;5051117;28;20496;-66
2022/11/28 01:16:41;;;;;;;12.52;6.45;;;5.80;1.00;;;;;;5033338;28;20381;-66
2022/11/28 01:19:07;;;;;;;12.30;5.70;;;5.80;1.00;;;;;;5051112;28;20871;-65
2022/11/28 01:21:33;;;;;;;13.13;7.03;;;5.80;99.90;;;;;;5051081;28;20373;-65
2022/11/28 01:23:58;;;;;;;15.30;7.27;;;5.80;99.90;;;;;;5051533;28;20408;-64
2022/11/28 01:26:27;;;;;;;13.27;6.37;;;6.70;99.90;;;;;;5050716;28;20866;-64
2022/11/28 01:28:53;;;;;;;13.57;7.10;;;5.90;99.90;;;;;;5050108;28;20454;-64
2022/11/28 01:31:22;;;;;;;11.63;6.32;;;6.00;99.90;;;;;;5050961;28;20468;-66
2022/11/28 01:33:49;;;;;;;14.27;6.38;;;6.10;99.90;;;;;;5050490;28;20398;-66
2022/11/28 01:36:16;;;;;;;15.32;6.97;;;6.00;99.90;;;;;;5050942;28;20444;-67
2022/11/28 01:38:41;;;;;;;12.80;6.47;;;6.80;99.90;;;;;;5050461;28;20386;-67
2022/11/28 01:41:08;;;;;;;13.37;6.00;;;5.90;99.90;;;;;;5050841;28;20378;-67
2022/11/28 01:43:34;;;;;;;13.00;5.55;;;6.50;1.00;;;;;;5050051;28;20382;-65
2022/11/28 01:46:01;;;;;;;11.57;5.45;;;5.80;1.00;;;;;;5049815;28;20393;-64
2022/11/28 01:48:31;;;;;;;12.85;6.10;;;5.70;1.00;;;;;;5050188;28;20415;-65
2022/11/28 01:51:00;;;;;;;12.75;6.22;;;5.70;1.00;;;;;;5049425;28;20391;-64
2022/11/28 01:53:29;;;;;;;12.73;5.80;;;5.70;99.90;;;;;;5050521;28;20393;-64
2022/11/28 01:55:59;;;;;;;12.30;6.20;;;5.70;1.00;;;;;;5049423;28;20545;-64
2022/11/28 01:58:26;;;;;;;12.02;6.35;;;5.70;1.00;;;;;;5050550;28;20393;-64
2022/11/28 02:00:52;;;;;;;14.70;6.68;;;5.70;99.90;;;;;;5048935;28;20465;-65
2022/11/28 02:03:26;;;;;;;15.60;6.60;;;5.60;92.40;;;;;;5050042;28;20401;-64
2022/11/28 02:05:52;;;;;;;16.73;6.55;;;6.50;99.90;;;;;;5032364;28;20385;-65
2022/11/28 02:08:18;;;;;;;15.25;7.13;;;6.20;99.90;;;;;;5050201;28;20388;-65
2022/11/28 02:11:08;;;;;;;15.03;7.03;;;5.60;93.70;;;;;;5048968;28;20377;-65
2022/11/28 02:14:06;;;;;;;14.68;6.85;;;5.70;50.80;;;;;;5049835;28;20385;-65
2022/11/28 02:16:52;;;;;;;14.85;7.20;;;5.70;1.00;;;;;;5005370;28;20401;-65
2022/11/28 02:19:39;;;;;;;14.38;6.95;;;5.70;1.00;;;;;;5049879;28;20747;-64
2022/11/28 02:22:28;;;;;;;16.38;7.78;;;5.70;1.00;;;;;;5050409;28;20377;-64
2022/11/28 02:25:11;;;;;;;13.57;6.73;;;5.70;1.00;;;;;;5049079;28;20787;-65
2022/11/28 02:28:02;;;;;;;15.23;7.25;;;5.60;99.90;;;;;;5049009;28;20492;-65
2022/11/28 02:30:35;;;;;;;14.35;7.40;;;5.60;99.90;;;;;;5049854;28;20378;-64
2022/11/28 02:33:26;;;;;;;13.88;6.90;;;6.10;1.00;;;;;;5031842;28;20822;-64
2022/11/28 02:36:26;;;;;;;12.40;6.37;;;6.00;1.00;;;;;;5047860;28;20425;-65
2022/11/28 02:39:18;;;;;;;13.10;6.25;;;5.70;99.90;;;;;;5048773;28;20381;-64
2022/11/28 02:41:46;;;;;;;12.32;6.60;;;5.60;99.90;;;;;;5049243;28;20373;-65
2022/11/28 02:44:24;;;;;;;11.90;6.17;;;5.60;99.90;;;;;;5049598;28;20421;-65
2022/11/28 02:47:02;;;;;;;12.50;5.78;;;5.70;99.90;;;;;;5054242;28;20398;-64
2022/11/28 02:49:43;;;;;;;12.52;6.40;;;6.70;99.90;;;;;;5070102;28;20371;-65
2022/11/28 02:52:19;;;;;;;15.65;6.75;;;5.70;93.30;;;;;;5070097;28;20388;-65
2022/11/28 02:54:48;;;;;;;12.57;6.22;;;5.70;99.90;;;;;;5069316;28;20419;-65
2022/11/28 02:57:14;;;;;;;13.93;6.10;;;6.20;99.90;;;;;;5051296;28;20391;-65
2022/11/28 02:59:39;;;;;;;14.35;5.93;;;5.70;99.90;;;;;;5069015;28;20372;-65
2022/11/28 03:02:26;;;;;;;12.37;6.10;;;7.10;97.50;;;;;;5069888;28;20573;-65
2022/11/28 03:05:17;;;;;;;13.38;6.50;;;5.80;1.00;;;;;;5068808;28;20880;-65
2022/11/28 03:08:01;;;;;;;11.55;5.60;;;7.00;1.00;;;;;;5069600;28;20399;-65
2022/11/28 03:10:34;;;;;;;13.25;5.72;;;5.80;1.00;;;;;;5070289;28;20691;-65
2022/11/28 03:13:30;;;;;;;12.95;5.90;;;5.80;1.00;;;;;;5073020;28;20379;-65
2022/11/28 03:16:17;;;;;;;13.15;6.10;;;5.80;1.00;;;;;;5072948;28;20564;-65
2022/11/28 03:18:58;;;;;;;11.43;5.70;;;5.80;1.00;;;;;;5072931;28;20382;-65
2022/11/28 03:21:45;;;;;;;13.43;5.85;;;5.80;1.00;;;;;;5073271;28;21236;-65
2022/11/28 03:24:23;;;;;;;12.55;5.38;;;6.80;1.00;;;;;;5073931;28;20379;-65
2022/11/28 03:26:57;;;;;;;11.10;5.50;;;5.90;1.00;;;;;;5073117;28;20383;-65
2022/11/28 03:29:40;;;;;;;11.63;5.63;;;6.00;1.00;;;;;;5073594;28;20375;-65
2022/11/28 03:32:26;;;;;;;13.00;5.80;;;6.70;1.00;;;;;;5073442;28;20458;-66
2022/11/28 03:34:58;;;;;;;12.47;5.93;;;5.90;1.00;;;;;;5072339;28;20514;-65
2022/11/28 03:37:29;;;;;;;12.40;6.13;;;6.00;1.00;;;;;;5073143;28;20467;-66
2022/11/28 03:39:58;;;;;;;13.00;5.80;;;7.30;1.00;;;;;;5072149;28;20376;-65
2022/11/28 03:42:28;;;;;;;12.70;6.40;;;6.10;1.00;;;;;;5055105;28;20814;-65
2022/11/28 03:45:04;;;;;;;12.70;6.57;;;6.10;1.00;;;;;;5072275;28;20384;-66
2022/11/28 03:47:35;;;;;;;12.40;6.30;;;6.10;1.00;;;;;;5073078;28;20379;-66
2022/11/28 03:50:06;;;;;;;14.55;6.30;;;7.70;1.00;;;;;;5073621;28;20380;-65
2022/11/28 03:52:37;;;;;;;13.38;5.40;;;6.00;1.00;;;;;;5072857;28;20395;-65
2022/11/28 03:55:09;;;;;;;13.80;5.88;;;6.30;1.00;;;;;;5072442;28;20933;-65
2022/11/28 03:57:38;;;;;;;12.02;5.90;;;5.90;1.00;;;;;;5072553;28;20379;-65
2022/11/28 04:00:11;;;;;;;12.88;6.47;;;5.80;1.00;;;;;;5072970;28;20380;-65
2022/11/28 04:02:55;;;;;;;13.77;6.47;;;5.80;1.00;;;;;;5072370;28;20380;-65
2022/11/28 04:05:57;;;;;;;12.85;6.30;;;5.80;1.00;;;;;;5072927;28;20384;-65
2022/11/28 04:08:28;;;;;;;12.50;5.97;;;6.80;1.00;;;;;;5020701;28;20469;-65
2022/11/28 04:11:04;;;;;;;13.60;6.63;;;6.80;1.00;;;;;;5072039;28;20372;-66
2022/11/28 04:13:42;;;;;;;10.63;5.28;;;5.80;1.00;;;;;;5072454;28;20376;-64
2022/11/28 04:16:21;;;;;;;14.60;6.10;;;5.80;1.00;;;;;;5072518;28;20412;-65
2022/11/28 04:18:59;;;;;;;12.05;5.40;;;5.80;1.00;;;;;;5071656;28;20466;-67
2022/11/28 04:21:33;;;;;;;12.35;5.82;;;5.80;1.00;;;;;;5072751;28;20434;-66
2022/11/28 04:24:04;;;;;;;14.13;5.80;;;5.80;1.00;;;;;;5070965;28;20975;-66
2022/11/28 04:26:34;;;;;;;12.52;5.68;;;5.90;1.00;;;;;;5072572;28;20475;-65
2022/11/28 04:29:04;;;;;;;13.33;6.40;;;5.80;1.00;;;;;;5071951;28;20387;-66
2022/11/28 04:31:31;;;;;;;14.60;6.50;;;6.50;1.00;;;;;;5069765;28;20399;-66
2022/11/28 04:34:02;;;;;;;12.77;6.30;;;5.90;1.00;;;;;;5071500;28;20483;-66
2022/11/28 04:36:29;;;;;;;16.35;6.70;;;6.60;1.00;;;;;;5072413;28;20384;-66
2022/11/28 04:38:57;;;;;;;21.70;9.90;;;5.90;1.00;;;;;;5071147;28;20383;-65
2022/11/28 04:41:37;;;;;;;16.10;7.40;;;6.00;1.00;;;;;;5071178;28;20399;-65
2022/11/28 04:44:15;;;;;;;12.95;6.15;;;6.00;1.00;;;;;;5071522;28;20379;-65
2022/11/28 04:46:47;;;;;;;11.38;6.70;;;5.80;1.00;;;;;;5071334;28;20833;-66
2022/11/28 04:49:13;;;;;;;13.88;6.45;;;6.80;1.00;;;;;;5053182;28;20423;-65
2022/11/28 04:51:45;;;;;;;13.27;6.20;;;6.00;1.00;;;;;;5065362;28;20403;-65
2022/11/28 04:54:49;;;;;;;13.40;6.70;;;6.30;1.00;;;;;;5071398;28;20392;-66
2022/11/28 04:57:32;;;;;;;15.30;6.85;;;5.80;1.00;;;;;;5053205;28;20895;-66
2022/11/28 05:00:01;;;;;;;11.88;5.70;;;5.90;1.00;;;;;;5067691;28;20980;-66
2022/11/28 05:02:28;;;;;;;14.38;6.28;;;6.50;1.00;;;;;;5070962;28;20415;-66
2022/11/28 05:04:54;;;;;;;12.27;6.10;;;5.70;1.00;;;;;;5070232;28;20387;-65
2022/11/28 05:07:20;;;;;;;17.70;8.23;;;5.70;99.90;;;;;;5071268;28;20395;-65
2022/11/28 05:09:46;;;;;;;23.40;10.25;;;5.80;99.90;;;;;;5070989;28;20372;-67
2022/11/28 05:12:12;;;;;;;25.00;12.45;;;5.90;1.00;;;;;;5071595;28;20446;-68
2022/11/28 05:14:39;;;;;;;28.58;13.75;;;6.00;1.00;;;;;;5071139;28;20404;-67
2022/11/28 05:17:05;;;;;;;20.38;9.60;;;6.00;1.00;;;;;;5071157;28;20403;-67
2022/11/28 05:19:31;;;;;;;16.65;8.27;;;6.10;1.00;;;;;;5068353;28;20490;-67
2022/11/28 05:21:57;;;;;;;16.73;8.23;;;6.60;1.00;;;;;;5065101;28;21060;-67
2022/11/28 05:24:22;;;;;;;14.80;7.85;;;6.60;1.00;;;;;;5070843;28;20379;-68
2022/11/28 05:26:48;;;;;;;13.17;7.20;;;7.10;1.00;;;;;;5069887;28;20387;-67
2022/11/28 05:29:14;;;;;;;16.63;7.78;;;6.30;99.90;;;;;;5070613;28;20491;-67
2022/11/28 05:31:39;;;;;;;16.37;7.80;;;6.20;1.00;;;;;;5069963;28;20471;-68
2022/11/28 05:34:05;;;;;;;15.53;7.47;;;6.20;1.00;;;;;;5069251;28;20400;-65
2022/11/28 05:36:31;;;;;;;15.32;7.18;;;6.00;1.00;;;;;;5070310;28;20809;-65
2022/11/28 05:38:56;;;;;;;15.53;6.60;;;7.10;1.00;;;;;;5069924;28;20838;-66
2022/11/28 05:41:24;;;;;;;15.88;7.18;;;7.20;61.20;;;;;;5070311;28;20384;-66
2022/11/28 05:43:50;;;;;;;13.75;6.47;;;6.70;1.00;;;;;;5069435;28;20396;-65
2022/11/28 05:46:17;;;;;;;12.40;6.25;;;5.90;1.00;;;;;;5069610;28;20880;-64
2022/11/28 05:48:43;;;;;;;13.50;6.60;;;6.90;1.00;;;;;;5070260;28;20376;-65
2022/11/28 05:51:08;;;;;;;11.63;6.07;;;5.90;1.00;;;;;;5070517;28;20380;-68
2022/11/28 05:53:34;;;;;;;12.05;6.45;;;7.20;1.00;;;;;;5070797;28;20380;-65
2022/11/28 05:56:06;;;;;;;14.15;6.22;;;5.80;1.00;;;;;;5069536;28;20408;-65
2022/11/28 05:58:31;;;;;;;14.63;6.70;;;5.70;1.00;;;;;;5070249;28;20376;-65
2022/11/28 06:00:57;;;;;;;13.35;6.20;;;5.80;99.90;;;;;;5050680;28;20406;-65
2022/11/28 06:03:23;;;;;;;12.60;6.33;;;5.70;99.90;;;;;;5069988;28;20900;-65
2022/11/28 06:05:48;;;;;;;13.07;6.70;;;5.80;90.00;;;;;;5069462;28;20391;-65
2022/11/28 06:08:14;;;;;;;14.73;6.43;;;5.80;97.50;;;;;;5069773;28;20391;-68
2022/11/28 06:10:40;;;;;;;14.02;5.80;;;5.80;55.50;;;;;;5064761;28;20422;-66
2022/11/28 06:13:06;;;;;;;13.75;7.03;;;7.10;99.90;;;;;;5068258;28;20419;-66
2022/11/28 06:15:32;;;;;;;13.43;6.30;;;5.80;99.90;;;;;;5069357;28;20417;-66
2022/11/28 06:17:57;;;;;;;14.07;6.70;;;5.90;79.80;;;;;;5068572;28;20398;-59
2022/11/28 06:20:23;;;;;;;14.32;6.88;;;6.00;1.00;;;;;;5069969;28;20533;-68
2022/11/28 06:22:49;;;;;;;16.98;8.25;;;7.00;1.00;;;;;;5068964;28;20376;-68
2022/11/28 06:25:14;;;;;;;15.90;7.60;;;6.90;1.00;;;;;;5070199;28;20427;-66
2022/11/28 06:27:40;;;;;;;13.55;6.80;;;5.90;1.00;;;;;;5069493;28;20862;-70
2022/11/28 06:30:06;;;;;;;13.93;6.20;;;5.80;1.00;;;;;;5069474;28;20388;-66
2022/11/28 06:32:32;;;;;;;15.00;7.13;;;5.80;34.40;;;;;;5069403;28;20740;-64
2022/11/28 06:34:57;;;;;;;17.25;6.47;;;5.80;39.00;;;;;;5068700;28;20424;-67
2022/11/28 06:37:23;;;;;;;14.13;6.40;;;5.90;99.90;;;;;;5070280;28;20380;-66
2022/11/28 06:39:50;;;;;;;14.48;6.65;;;5.90;90.60;;;;;;5069063;28;20845;-66
2022/11/28 06:42:16;;;;;;;14.77;7.53;;;5.90;41.40;;;;;;5052139;28;20457;-66
2022/11/28 06:44:42;;;;;;;16.95;7.68;;;7.00;99.90;;;;;;5051480;28;20398;-69
2022/11/28 06:47:07;;;;;;;19.60;8.13;;;5.90;99.90;;;;;;5069780;28;20376;-66
2022/11/28 06:49:34;;;;;;;14.93;7.65;;;5.90;99.90;;;;;;5069738;28;20383;-67
2022/11/28 06:52:00;;;;;;;15.35;7.05;;;5.90;99.90;;;;;;5069145;28;20459;-67
2022/11/28 06:54:25;;;;;;;14.43;7.50;;;7.50;99.90;;;;;;5051882;28;20974;-67
2022/11/28 06:56:51;;;;;;;15.70;7.53;;;6.60;1.00;;;;;;5069147;28;20386;-66
2022/11/28 06:59:17;;;;;;;14.80;7.63;;;6.10;1.00;;;;;;5069455;28;20376;-69
2022/11/28 07:01:42;;;;;;;16.25;7.47;;;6.10;1.00;;;;;;5068695;28;20376;-67
2022/11/28 07:04:09;;;;;;;17.47;7.83;;;7.00;1.00;;;;;;5066251;28;20427;-67
2022/11/28 07:06:34;;;;;;;14.98;7.38;;;6.00;1.00;;;;;;5064393;28;20746;-66
2022/11/28 07:09:00;;;;;;;15.30;7.13;;;6.40;1.00;;;;;;5068448;28;20387;-66
2022/11/28 07:11:28;;;;;;;14.10;6.90;;;7.30;1.00;;;;;;5069157;28;20382;-66
2022/11/28 07:13:54;;;;;;;13.18;6.60;;;5.90;1.00;;;;;;5068659;28;20403;-67
2022/11/28 07:16:29;;;;;;;16.60;7.47;;;7.30;99.90;;;;;;5069159;28;20427;-67
2022/11/28 07:18:55;;;;;;;13.53;6.60;;;5.80;99.90;;;;;;5068278;28;20510;-67
2022/11/28 07:21:21;;;;;;;13.85;6.47;;;5.90;99.90;;;;;;5069075;28;20392;-67
2022/11/28 07:23:47;;;;;;;14.80;6.88;;;7.10;99.90;;;;;;5068758;28;20849;-67
2022/11/28 07:26:16;;;;;;;14.05;6.28;;;5.80;99.90;;;;;;5069563;28;20400;-67
2022/11/28 07:28:42;;;;;;;15.48;7.25;;;5.70;1.00;;;;;;5068474;28;20387;-68
2022/11/28 07:31:14;;;;;;;12.98;6.75;;;5.80;1.00;;;;;;5069145;28;20437;-67
2022/11/28 07:33:42;;;;;;;16.40;7.72;;;5.90;99.90;;;;;;5068597;28;20408;-67
2022/11/28 07:36:21;;;;;;;14.43;6.82;;;5.90;99.90;;;;;;5069352;28;20427;-67
2022/11/28 07:38:48;;;;;;;14.70;7.10;;;6.20;99.90;;;;;;5068327;28;20388;-67
2022/11/28 07:41:14;;;;;;;14.02;7.32;;;6.20;99.90;;;;;;5069014;28;20459;-67
2022/11/28 07:43:41;;;;;;;14.30;7.07;;;7.10;99.90;;;;;;5068980;28;20380;-67
2022/11/28 07:46:09;;;;;;;14.50;6.75;;;6.20;72.00;;;;;;5069027;28;20384;-66
2022/11/28 07:48:35;;;;;;;15.27;6.60;;;6.20;99.90;;;;;;5069792;28;20838;-67
2022/11/28 07:51:09;;;;;;;14.97;7.00;;;6.30;99.90;;;;;;5068082;28;20387;-67
2022/11/28 07:53:35;;;;;;;13.13;6.45;;;7.40;1.00;;;;;;5068967;28;20390;-67
2022/11/28 07:56:06;;;;;;;18.00;7.23;;;6.50;1.00;;;;;;5068512;28;20428;-67
2022/11/28 07:58:34;;;;;;;14.65;6.70;;;6.50;1.00;;;;;;5069936;28;20403;-67
2022/11/28 08:01:00;;;;;;;15.70;7.27;;;7.60;1.00;;;;;;5072043;28;20516;-67
2022/11/28 08:03:25;;;;;;;14.73;6.70;;;6.50;1.00;;;;;;5072882;28;20935;-68
2022/11/28 08:05:51;;;;;;;13.02;6.57;;;6.60;1.00;;;;;;5072110;28;20434;-69
2022/11/28 08:08:17;;;;;;;13.70;6.50;;;6.50;1.00;;;;;;5073022;28;20786;-66
2022/11/28 08:10:44;;;;;;;14.85;6.97;;;6.50;1.00;;;;;;5072285;28;20371;-66
2022/11/28 08:13:11;;;;;;;15.18;7.28;;;6.60;1.00;;;;;;5072560;28;20368;-67
2022/11/28 08:15:38;;;;;;;14.10;6.70;;;6.70;1.00;;;;;;5072456;28;20749;-68
2022/11/28 08:18:04;;;;;;;15.10;7.20;;;8.40;1.00;;;;;;5071927;28;20379;-68
2022/11/28 08:20:30;;;;;;;14.30;7.00;;;6.80;1.00;;;;;;5072744;28;20413;-68
2022/11/28 08:22:56;;;;;;;16.23;6.60;;;7.40;1.00;;;;;;5071731;28;20380;-67
2022/11/28 08:25:21;;;;;;;21.35;6.40;;;6.80;1.00;;;;;;5073002;28;20379;-66
2022/11/28 08:27:47;;;;;;;17.92;7.20;;;6.80;99.90;;;;;;5071005;28;20513;-67
2022/11/28 08:30:13;;;;;;;15.60;6.90;;;7.40;99.90;;;;;;5072342;28;20472;-66
2022/11/28 08:32:38;;;;;;;18.42;7.60;;;6.80;99.90;;;;;;5071672;28;20375;-67
2022/11/28 08:35:04;;;;;;;15.45;8.30;;;6.80;99.90;;;;;;5070935;28;20433;-67
2022/11/28 08:37:30;;;;;;;14.70;6.90;;;6.70;99.90;;;;;;5071665;28;20391;-67
2022/11/28 08:39:55;;;;;;;15.18;6.97;;;6.80;1.00;;;;;;5071627;28;20391;-68
2022/11/28 08:42:21;;;;;;;17.97;7.03;;;6.80;99.90;;;;;;5071504;28;20380;-68
2022/11/28 08:44:47;;;;;;;13.10;6.55;;;6.80;1.00;;;;;;5071151;28;20470;-69
2022/11/28 08:47:12;;;;;;;17.10;7.43;;;6.70;1.00;;;;;;5071568;28;20383;-68
2022/11/28 08:49:38;;;;;;;18.02;8.77;;;6.80;1.00;;;;;;5071753;28;20375;-69
2022/11/28 08:52:04;;;;;;;15.77;7.40;;;7.20;99.90;;;;;;5070636;28;20464;-69
2022/11/28 08:54:30;;;;;;;15.50;7.00;;;7.10;99.90;;;;;;5072123;28;20412;-66
2022/11/28 08:56:55;;;;;;;14.75;7.40;;;7.10;99.90;;;;;;5070898;28;20880;-66
2022/11/28 08:59:21;;;;;;;13.60;6.90;;;7.10;99.90;;;;;;5071562;28;20376;-66
2022/11/28 09:01:46;;;;;;;14.18;7.03;;;7.00;99.90;;;;;;5070819;28;20384;-69
2022/11/28 09:04:12;;;;;;;20.30;7.23;;;7.00;99.90;;;;;;5071837;28;20379;-68
2022/11/28 09:06:39;;;;;;;16.13;7.60;;;6.90;1.00;;;;;;5070637;28;20398;-68
2022/11/28 09:09:04;;;;;;;14.30;7.10;;;6.90;1.00;;;;;;5070053;28;20400;-68
2022/11/28 09:11:30;;;;;;;14.77;6.70;;;7.00;1.00;;;;;;5071463;28;20740;-68
2022/11/28 09:13:56;;;;;;;14.40;7.55;;;7.10;1.00;;;;;;5070760;28;20384;-66
2022/11/28 09:16:22;;;;;;;14.63;7.10;;;7.20;1.00;;;;;;5071800;28;20407;-68
2022/11/28 09:18:47;;;;;;;15.05;7.40;;;7.40;1.00;;;;;;5070058;28;20956;-67
2022/11/28 09:21:14;;;;;;;18.17;8.05;;;8.00;1.00;;;;;;5071306;28;20379;-66
2022/11/28 09:23:42;;;;;;;16.63;7.43;;;7.70;99.90;;;;;;5071183;28;20387;-66
2022/11/28 09:26:19;;;;;;;15.68;7.80;;;8.00;99.90;;;;;;5070191;28;20383;-66
2022/11/28 09:28:45;;;;;;;18.17;8.43;;;8.10;99.90;;;;;;5070217;28;20871;-67
2022/11/28 09:31:12;;;;;;;17.70;7.97;;;8.30;99.90;;;;;;5071476;28;20908;-67
2022/11/28 09:33:37;;;;;;;18.92;9.45;;;8.50;99.90;;;;;;5070851;28;20418;-66
2022/11/28 09:36:08;;;;;;;15.55;7.55;;;8.50;99.90;;;;;;5069786;28;20497;-67
2022/11/28 09:38:33;;;;;;;13.80;7.00;;;8.40;85.30;;;;;;5070996;28;20487;-67
2022/11/28 09:41:01;;;;;;;16.90;8.13;;;8.20;93.00;;;;;;5069961;28;20873;-67
2022/11/28 09:43:42;;;;;;;22.52;8.40;;;8.20;99.90;;;;;;5070911;28;20376;-67
2022/11/28 09:46:14;;;;;;;16.40;7.60;;;8.20;99.90;;;;;;5070962;28;20467;-67
2022/11/28 09:48:52;;;;;;;17.90;8.23;;;8.20;99.90;;;;;;5070502;28;20387;-67
2022/11/28 09:51:56;;;;;;;19.30;8.82;;;8.40;86.10;;;;;;5070685;28;20374;-67
2022/11/28 09:54:48;;;;;;;17.60;8.20;;;9.90;55.40;;;;;;5069018;28;20392;-67
2022/11/28 09:57:33;;;;;;;16.70;8.20;;;9.00;57.90;;;;;;5056759;28;20487;-67
2022/11/28 09:59:59;;;;;;;16.67;8.00;;;9.70;49.10;;;;;;5051555;28;20403;-67
2022/11/28 10:02:39;;;;;;;17.95;8.40;;;8.50;18.10;;;;;;5070735;28;20383;-67
2022/11/28 10:05:34;;;;;;;17.15;7.50;;;8.50;1.00;;;;;;5069779;28;20399;-67
2022/11/28 10:08:27;;;;;;;17.88;8.90;;;8.60;1.00;;;;;;5069987;28;20402;-67
2022/11/28 10:11:12;;;;;;;17.88;8.15;;;8.60;1.00;;;;;;5069642;28;20380;-67
2022/11/28 10:13:52;;;;;;;17.17;8.95;;;8.60;1.00;;;;;;5069875;28;20880;-67
2022/11/28 10:16:26;;;;;;;21.10;9.10;;;8.60;1.00;;;;;;5069937;28;20888;-67
2022/11/28 10:19:08;;;;;;;20.45;9.20;;;8.70;1.00;;;;;;5070187;28;20835;-68
2022/11/28 10:21:54;;;;;;;15.52;7.53;;;8.70;1.00;;;;;;5069773;28;20848;-64
2022/11/28 10:24:38;;;;;;;20.00;9.50;;;8.80;1.00;;;;;;5069964;28;20391;-64
2022/11/28 10:27:05;;;;;;;17.77;7.70;;;8.90;1.00;;;;;;5069746;28;20368;-66
2022/11/28 10:29:37;;;;;;;16.13;6.85;;;8.90;1.00;;;;;;5070102;28;20382;-66
2022/11/28 10:32:04;;;;;;;16.33;8.27;;;9.00;1.00;;;;;;5069611;28;20454;-66
2022/11/28 10:34:50;;;;;;;16.55;7.50;;;9.00;1.00;;;;;;5069931;28;20407;-66
2022/11/28 10:37:27;;;;;;;17.02;7.80;;;9.10;1.00;;;;;;5069849;28;20387;-66
2022/11/28 10:39:55;;;;;;;17.05;8.02;;;9.30;1.00;;;;;;5051132;28;20388;-66
2022/11/28 10:42:43;;;;;;;16.58;7.15;;;9.40;1.00;;;;;;5069913;28;20388;-66
2022/11/28 10:45:33;;;;;;;15.80;8.10;;;9.30;1.00;;;;;;5069896;28;20410;-65
2022/11/28 10:48:34;;;;;;;15.20;8.02;;;9.30;1.00;;;;;;5069455;28;20380;-66
2022/11/28 10:51:15;;;;;;;15.02;7.10;;;9.20;1.00;;;;;;5050652;28;20875;-66
2022/11/28 10:53:44;;;;;;;19.27;8.30;;;9.30;1.00;;;;;;5067251;28;20434;-66
2022/11/28 10:56:27;;;;;;;18.48;7.88;;;9.30;1.00;;;;;;5069290;28;20458;-66
2022/11/28 10:59:13;;;;;;;15.90;7.65;;;9.30;1.00;;;;;;5060254;28;20398;-66
2022/11/28 11:01:40;;;;;;;15.10;7.10;;;9.30;1.00;;;;;;5068908;28;20386;-66
2022/11/28 11:04:16;;;;;;;15.73;7.65;;;9.30;1.00;;;;;;5061571;28;20399;-65
2022/11/28 11:06:42;;;;;;;16.50;7.90;;;9.30;1.00;;;;;;5049982;28;20851;-64
2022/11/28 11:09:12;;;;;;;18.02;6.95;;;9.30;1.00;;;;;;5048734;28;20386;-65
2022/11/28 11:11:49;;;;;;;14.57;7.07;;;9.30;1.00;;;;;;5049157;28;20866;-66
2022/11/28 11:14:32;;;;;;;15.00;7.32;;;9.30;1.00;;;;;;5059197;28;20458;-66
2022/11/28 11:16:58;;;;;;;17.50;7.50;;;9.50;1.00;;;;;;5066404;28;20816;-65
2022/11/28 11:19:36;;;;;;;17.45;7.60;;;9.50;1.00;;;;;;5065072;28;20396;-65
2022/11/28 11:22:25;;;;;;;15.32;6.78;;;9.40;1.00;;;;;;5066939;28;20384;-65
2022/11/28 11:25:11;;;;;;;16.38;7.60;;;9.30;1.00;;;;;;5067571;28;20391;-66
2022/11/28 11:27:46;;;;;;;14.60;6.95;;;9.30;1.00;;;;;;5068335;28;20464;-66
2022/11/28 11:30:16;;;;;;;13.35;6.90;;;9.30;1.00;;;;;;5065703;28;20387;-65
2022/11/28 11:32:47;;;;;;;14.80;6.43;;;9.10;1.00;;;;;;5068604;28;20392;-65
2022/11/28 11:35:22;;;;;;;15.15;6.70;;;9.10;1.00;;;;;;5071717;28;20427;-65
2022/11/28 11:37:48;;;;;;;16.13;6.60;;;9.10;1.00;;;;;;5070958;28;20860;-65
2022/11/28 11:40:25;;;;;;;15.00;6.67;;;9.10;1.00;;;;;;5066563;28;20395;-65
2022/11/28 11:42:54;;;;;;;14.25;6.78;;;9.00;1.00;;;;;;5065247;28;20375;-64
2022/11/28 11:45:28;;;;;;;15.75;7.80;;;9.10;1.00;;;;;;5072055;28;20483;-65
2022/11/28 11:47:54;;;;;;;14.40;7.38;;;9.20;1.00;;;;;;5071057;28;20380;-66
2022/11/28 11:50:22;;;;;;;15.45;7.47;;;9.20;1.00;;;;;;5063153;28;20878;-65
2022/11/28 11:53:06;;;;;;;14.75;7.28;;;9.90;1.00;;;;;;5066608;28;20392;-67
2022/11/28 11:55:42;;;;;;;15.32;8.30;;;9.30;1.00;;;;;;5067591;28;20911;-67
2022/11/28 11:58:14;;;;;;;18.33;9.10;;;9.30;1.00;;;;;;5066322;28;20428;-64
2022/11/28 12:00:40;;;;;;;19.00;9.30;;;9.40;1.00;;;;;;5064430;28;20388;-65
2022/11/28 12:03:24;;;;;;;14.38;7.45;;;9.40;1.00;;;;;;5066854;28;20487;-66
2022/11/28 12:06:04;;;;;;;16.48;7.88;;;9.40;1.00;;;;;;5068194;28;20772;-67
2022/11/28 12:08:34;;;;;;;19.45;8.38;;;9.20;1.00;;;;;;5067815;28;20453;-66
2022/11/28 12:11:26;;;;;;;18.85;8.63;;;10.20;1.00;;;;;;5067379;28;20392;-66
2022/11/28 12:13:52;;;;;;;16.45;7.60;;;9.20;1.00;;;;;;5065688;28;20428;-66
2022/11/28 12:16:56;;;;;;;18.25;8.05;;;9.20;1.00;;;;;;5071377;28;20404;-65
2022/11/28 12:19:26;;;;;;;14.88;7.68;;;9.30;1.00;;;;;;5071426;28;20845;-65
2022/11/28 12:22:19;;;;;;;18.92;7.80;;;9.30;1.00;;;;;;5070622;28;20399;-66
2022/11/28 12:24:48;;;;;;;13.63;7.30;;;9.20;1.00;;;;;;5065899;28;20479;-67
2022/11/28 12:27:46;;;;;;;16.25;8.00;;;9.30;1.00;;;;;;5071923;28;20388;-65
2022/11/28 12:30:46;;;;;;;16.83;8.20;;;9.20;1.00;;;;;;5067592;28;20886;-65
2022/11/28 12:33:42;;;;;;;16.13;8.35;;;9.40;1.00;;;;;;5071560;28;20431;-65
2022/11/28 12:36:34;;;;;;;17.98;8.25;;;9.40;1.00;;;;;;5071022;28;20506;-65
2022/11/28 12:39:16;;;;;;;16.38;8.50;;;9.50;1.00;;;;;;5011304;28;20404;-66
2022/11/28 12:42:00;;;;;;;14.25;8.20;;;9.60;1.00;;;;;;5065406;28;20531;-65
2022/11/28 12:44:56;;;;;;;14.82;8.00;;;9.70;1.00;;;;;;5060973;28;20419;-65
2022/11/28 12:47:22;;;;;;;19.25;8.02;;;9.60;1.00;;;;;;5060377;28;20434;-65
2022/11/28 12:50:06;;;;;;;15.53;7.23;;;9.40;1.00;;;;;;5068065;28;20404;-67
2022/11/28 12:52:56;;;;;;;17.08;8.90;;;9.30;1.00;;;;;;5070070;28;20380;-64
2022/11/28 12:55:47;;;;;;;15.83;8.00;;;9.40;1.00;;;;;;5070227;28;20420;-66
2022/11/28 12:58:20;;;;;;;14.87;7.80;;;9.40;1.00;;;;;;5068806;28;20380;-66
2022/11/28 13:01:12;;;;;;;16.67;8.55;;;9.30;1.00;;;;;;5067734;28;20955;-66
2022/11/28 13:04:23;;;;;;;13.38;7.50;;;9.40;1.00;;;;;;5069586;28;20404;-63
2022/11/28 13:07:10;;;;;;;15.65;8.52;;;9.40;1.00;;;;;;4958404;28;20408;-64
2022/11/28 13:09:58;;;;;;;13.57;8.00;;;9.30;34.00;;;;;;5063630;28;20861;-64
2022/11/28 13:12:45;;;;;;;18.63;8.35;;;9.50;99.90;;;;;;5070425;28;20426;-65
2022/11/28 13:15:20;;;;;;;14.75;7.50;;;9.60;99.90;;;;;;5067333;28;20416;-63
2022/11/28 13:18:05;;;;;;;13.98;7.15;;;9.60;41.20;;;;;;5069993;28;20821;-66
2022/11/28 13:20:59;;;;;;;18.77;8.40;;;9.50;52.90;;;;;;5066414;28;20470;-65